createdAt,value
2023-09-28T02:14:17.907Z,72.61
2023-09-28T02:16:46.973Z,71.69
2023-09-28T02:19:17.360Z,71.82
2023-09-28T02:21:47.643Z,72.37
2023-09-28T02:24:16.466Z,72.47
2023-09-28T02:26:45.412Z,71.64
2023-09-28T02:29:14.330Z,71.78
2023-09-28T02:31:44.460Z,71.87
2023-09-28T02:34:16.352Z,71.94
2023-09-28T02:36:45.393Z,72.13
2023-09-28T02:39:15.253Z,73.00
2023-09-28T02:41:44.176Z,72.39
2023-09-28T02:44:15.312Z,72.20
2023-09-28T02:46:44.457Z,72.22
2023-09-28T02:49:13.359Z,72.42
2023-09-28T02:51:43.861Z,72.13
2023-09-28T02:54:15.220Z,72.97
2023-09-28T02:56:44.243Z,72.65
2023-09-28T02:59:13.212Z,72.95
2023-09-28T03:01:42.813Z,72.49
2023-09-28T03:04:11.755Z,72.80
2023-09-28T03:06:41.152Z,72.96
2023-09-28T03:09:10.038Z,72.15
2023-09-28T03:11:40.067Z,73.19
2023-09-28T03:14:08.868Z,73.23
2023-09-28T03:16:38.599Z,73.30
2023-09-28T03:19:09.587Z,73.30
2023-09-28T03:21:40.180Z,73.20
2023-09-28T03:24:09.847Z,73.21
2023-09-28T03:26:38.759Z,73.01
2023-09-28T03:29:08.103Z,73.49
2023-09-28T03:31:36.992Z,72.75
2023-09-28T03:34:05.978Z,72.72
2023-09-28T03:36:38.288Z,72.98
2023-09-28T03:39:07.020Z,73.17
2023-09-28T03:41:36.917Z,73.32
2023-09-28T03:44:07.797Z,73.31
2023-09-28T03:46:44.941Z,73.32
2023-09-28T03:49:15.969Z,73.03
2023-09-28T03:51:49.318Z,72.32
2023-09-28T03:54:22.908Z,73.29
2023-09-28T03:56:52.973Z,72.78
2023-09-28T03:59:22.200Z,73.08
2023-09-28T04:01:54.138Z,73.48
2023-09-28T04:04:23.114Z,73.32
2023-09-28T04:06:52.049Z,73.41
2023-09-28T04:09:21.112Z,74.02
2023-09-28T04:11:50.298Z,73.74
2023-09-28T04:14:19.414Z,73.17
2023-09-28T04:16:49.034Z,73.13
2023-09-28T04:19:17.907Z,73.72
2023-09-28T04:21:46.722Z,72.87
2023-09-28T04:24:15.515Z,73.66
2023-09-28T04:26:44.638Z,72.83
2023-09-28T04:29:13.473Z,74.17
2023-09-28T04:31:51.409Z,74.17
2023-09-28T04:34:20.801Z,73.32
2023-09-28T04:36:50.695Z,73.68
2023-09-28T04:39:19.932Z,73.92
2023-09-28T04:41:48.804Z,73.87
2023-09-28T04:44:19.578Z,74.32
2023-09-28T04:46:51.073Z,74.40
2023-09-28T04:49:21.126Z,74.56
2023-09-28T04:51:50.562Z,74.57
2023-09-28T04:54:20.850Z,73.42
2023-09-28T04:56:49.595Z,74.37
2023-09-28T04:59:18.689Z,74.57
2023-09-28T05:01:48.198Z,74.21
2023-09-28T05:04:17.098Z,73.61
2023-09-28T05:06:46.778Z,74.38
2023-09-28T05:09:15.804Z,74.15
2023-09-28T05:11:45.198Z,74.26
2023-09-28T05:14:14.027Z,74.56
2023-09-28T05:16:45.539Z,74.70
2023-09-28T05:19:14.750Z,74.68
2023-09-28T05:21:43.586Z,73.87
2023-09-28T05:24:12.332Z,74.77
2023-09-28T05:26:42.394Z,74.93
2023-09-28T05:29:11.292Z,74.98
2023-09-28T05:31:49.758Z,74.32
2023-09-28T05:34:18.947Z,75.32
2023-09-28T05:36:48.207Z,74.51
2023-09-28T05:39:18.428Z,74.59
2023-09-28T05:41:47.315Z,74.93
2023-09-28T05:44:16.312Z,74.55
2023-09-28T05:46:46.127Z,74.58
2023-09-28T05:49:15.408Z,74.33
2023-09-28T05:51:45.112Z,75.16
2023-09-28T05:54:14.451Z,74.97
2023-09-28T05:56:45.163Z,74.98
2023-09-28T05:59:14.076Z,75.29
2023-09-28T06:01:47.530Z,75.67
2023-09-28T06:04:19.661Z,75.39
2023-09-28T06:06:51.392Z,74.41
2023-09-28T06:09:20.489Z,75.27
2023-09-28T06:11:50.128Z,75.33
2023-09-28T06:14:20.438Z,75.07
2023-09-28T06:16:49.618Z,74.73
2023-09-28T06:19:19.064Z,74.98
2023-09-28T06:21:50.522Z,74.48
2023-09-28T06:24:22.702Z,74.44
2023-09-28T06:26:54.193Z,74.25
2023-09-28T06:29:23.584Z,74.06
2023-09-28T06:31:53.756Z,73.15
2023-09-28T06:34:22.807Z,72.28
2023-09-28T06:36:55.780Z,70.77
2023-09-28T06:39:28.555Z,70.54
2023-09-28T06:42:12.492Z,69.72
2023-09-28T06:44:53.577Z,68.86
2023-09-28T06:47:29.565Z,69.30
2023-09-28T06:50:11.662Z,69.00
2023-09-28T06:52:43.771Z,68.94
2023-09-28T06:55:14.033Z,68.92
2023-09-28T06:57:43.310Z,69.06
2023-09-28T07:00:17.717Z,69.42
2023-09-28T07:02:48.349Z,69.05
2023-09-28T07:05:18.672Z,68.91
2023-09-28T07:07:49.201Z,68.52
2023-09-28T07:10:22.327Z,68.40
2023-09-28T07:12:54.219Z,67.65
2023-09-28T07:15:23.291Z,67.42
2023-09-28T07:17:52.448Z,67.45
2023-09-28T07:20:25.937Z,67.16
2023-09-28T07:22:55.698Z,67.42
2023-09-28T07:25:26.601Z,67.24
2023-09-28T07:27:57.244Z,66.65
2023-09-28T07:30:26.525Z,65.39
2023-09-28T07:32:57.804Z,64.98
2023-09-28T07:35:29.304Z,65.21
2023-09-28T07:37:59.137Z,63.74
2023-09-28T07:40:44.727Z,64.15
2023-09-28T07:43:17.848Z,63.90
2023-09-28T07:45:47.348Z,63.70
2023-09-28T07:48:19.049Z,63.91
2023-09-28T07:50:51.722Z,64.24
2023-09-28T07:53:21.303Z,63.98
2023-09-28T07:55:52.361Z,63.64
2023-09-28T07:58:26.678Z,63.03
2023-09-28T08:00:56.434Z,59.70
2023-09-28T08:03:32.704Z,57.94
2023-09-28T08:06:03.243Z,56.23
2023-09-28T08:08:34.358Z,54.44
2023-09-28T08:11:03.965Z,53.23
2023-09-28T08:13:34.586Z,51.80
2023-09-28T08:16:04.837Z,50.98
2023-09-28T08:18:35.961Z,50.16
2023-09-28T08:21:10.825Z,49.40
2023-09-28T08:23:43.253Z,51.75
2023-09-28T08:26:16.275Z,52.98
2023-09-28T08:28:45.093Z,53.68
2023-09-28T08:31:17.393Z,54.39
2023-09-28T08:33:46.776Z,54.20
2023-09-28T08:36:15.832Z,54.67
2023-09-28T08:38:48.634Z,54.49
2023-09-28T08:41:21.060Z,55.37
2023-09-28T08:43:55.369Z,55.33
2023-09-28T08:46:44.682Z,55.80
2023-09-28T08:49:18.509Z,56.30
2023-09-28T08:51:49.378Z,56.04
2023-09-28T08:54:19.681Z,56.51
2023-09-28T08:56:49.920Z,55.35
2023-09-28T08:59:19.949Z,53.27
2023-09-28T09:01:49.776Z,50.92
2023-09-28T09:04:18.893Z,48.73
2023-09-28T09:06:48.737Z,48.02
2023-09-28T09:09:20.940Z,46.87
2023-09-28T09:11:54.567Z,46.37
2023-09-28T09:14:30.058Z,45.51
2023-09-28T09:16:59.882Z,45.15
2023-09-28T09:19:32.503Z,46.03
2023-09-28T09:22:05.863Z,46.73
2023-09-28T09:24:53.449Z,46.80
2023-09-28T09:27:29.434Z,47.24
2023-09-28T09:29:59.603Z,47.49
2023-09-28T09:32:31.101Z,47.16
2023-09-28T09:35:00.750Z,47.47
2023-09-28T09:37:29.922Z,47.37
2023-09-28T09:40:11.992Z,47.64
2023-09-28T09:42:42.280Z,47.68
2023-09-28T09:45:13.025Z,47.18
2023-09-28T09:47:50.211Z,47.68
2023-09-28T09:50:22.002Z,47.52
2023-09-28T09:52:53.421Z,47.34
2023-09-28T09:55:23.381Z,47.10
2023-09-28T09:57:58.150Z,47.43
2023-09-28T10:00:32.049Z,47.26
2023-09-28T10:03:06.193Z,47.34
2023-09-28T10:05:37.523Z,47.28
2023-09-28T10:08:09.127Z,47.33
2023-09-28T10:10:39.921Z,47.36
2023-09-28T10:13:09.827Z,46.89
2023-09-28T10:15:39.613Z,46.94
2023-09-28T10:18:09.032Z,46.84
2023-09-28T10:20:39.590Z,46.62
2023-09-28T10:23:24.489Z,46.32
2023-09-28T10:25:59.345Z,46.50
2023-09-28T10:28:28.954Z,46.47
2023-09-28T10:31:18.994Z,46.39
2023-09-28T10:34:00.937Z,46.44
2023-09-28T10:36:37.814Z,46.32
2023-09-28T10:39:12.345Z,46.42
2023-09-28T10:41:46.657Z,46.20
2023-09-28T10:44:18.373Z,46.29
2023-09-28T10:46:52.323Z,46.30
2023-09-28T10:49:26.419Z,45.97
2023-09-28T10:51:57.774Z,45.92
2023-09-28T10:54:26.748Z,45.74
2023-09-28T10:56:56.522Z,45.40
2023-09-28T10:59:26.464Z,45.64
2023-09-28T11:01:58.454Z,45.51
2023-09-28T11:04:43.327Z,45.31
2023-09-28T11:07:18.567Z,45.29
2023-09-28T11:09:51.894Z,44.93
2023-09-28T11:12:21.039Z,45.10
2023-09-28T11:14:57.272Z,45.02
2023-09-28T11:17:26.917Z,44.91
2023-09-28T11:19:57.371Z,44.98
2023-09-28T11:22:29.384Z,44.89
2023-09-28T11:24:59.557Z,44.81
2023-09-28T11:27:29.114Z,44.71
2023-09-28T11:29:58.878Z,44.77
2023-09-28T11:32:27.977Z,44.83
2023-09-28T11:34:59.288Z,44.60
2023-09-28T11:37:29.701Z,44.79
2023-09-28T11:40:00.469Z,44.69
2023-09-28T11:42:29.372Z,44.79
2023-09-28T11:45:00.230Z,44.95
2023-09-28T11:47:29.477Z,44.63
2023-09-28T11:49:58.950Z,44.44
2023-09-28T11:52:29.198Z,44.72
2023-09-28T11:54:58.241Z,44.63
2023-09-28T11:57:28.566Z,44.67
2023-09-28T11:59:57.653Z,44.55
2023-09-28T12:02:26.802Z,44.50
2023-09-28T12:04:59.777Z,44.49
2023-09-28T12:07:29.934Z,44.31
2023-09-28T12:10:04.651Z,44.49
2023-09-28T12:12:37.617Z,44.25
2023-09-28T12:15:11.590Z,44.75
2023-09-28T12:17:41.310Z,44.47
2023-09-28T12:20:14.619Z,44.78
2023-09-28T12:22:44.913Z,44.37
2023-09-28T12:25:14.591Z,44.47
2023-09-28T12:27:45.645Z,44.51
2023-09-28T12:30:19.484Z,44.48
2023-09-28T12:32:52.052Z,44.23
2023-09-28T12:35:22.162Z,44.04
2023-09-28T12:37:52.258Z,43.95
2023-09-28T12:40:21.531Z,44.02
2023-09-28T12:42:50.596Z,43.74
2023-09-28T12:45:19.584Z,43.66
2023-09-28T12:47:48.758Z,43.64
2023-09-28T12:50:18.052Z,43.59
2023-09-28T12:52:48.833Z,43.47
2023-09-28T12:55:17.831Z,43.65
2023-09-28T12:57:46.938Z,43.72
2023-09-28T13:00:19.221Z,43.58
2023-09-28T13:02:48.645Z,43.59
2023-09-28T13:05:19.041Z,43.45
2023-09-28T13:07:49.217Z,43.44
2023-09-28T13:10:23.317Z,43.25
2023-09-28T13:12:54.322Z,43.50
2023-09-28T13:15:31.353Z,43.21
2023-09-28T13:18:01.572Z,43.47
2023-09-28T13:20:34.533Z,43.52
2023-09-28T13:23:03.719Z,43.52
2023-09-28T13:25:35.099Z,43.51
2023-09-28T13:28:11.480Z,43.58
2023-09-28T13:30:44.122Z,43.44
2023-09-28T13:33:15.948Z,43.57
2023-09-28T13:35:46.066Z,43.52
2023-09-28T13:38:15.649Z,43.54
2023-09-28T13:40:52.015Z,43.46
2023-09-28T13:43:27.648Z,43.42
2023-09-28T13:45:56.936Z,43.71
2023-09-28T13:48:31.379Z,43.54
2023-09-28T13:51:06.004Z,43.30
2023-09-28T13:53:42.413Z,43.64
2023-09-28T13:56:11.559Z,43.33
2023-09-28T13:58:40.505Z,43.22
2023-09-28T14:01:13.680Z,43.07
2023-09-28T14:03:42.902Z,43.39
2023-09-28T14:06:12.367Z,43.25
2023-09-28T14:08:42.900Z,42.94
2023-09-28T14:11:22.844Z,42.88
2023-09-28T14:13:52.680Z,43.01
2023-09-28T14:16:21.691Z,42.62
2023-09-28T14:18:51.625Z,42.64
2023-09-28T14:21:21.641Z,42.61
2023-09-28T14:23:53.742Z,43.10
2023-09-28T14:26:26.175Z,42.72
2023-09-28T14:28:58.116Z,42.77
2023-09-28T14:31:27.902Z,42.76
2023-09-28T14:33:57.155Z,42.41
2023-09-28T14:36:27.277Z,43.07
2023-09-28T14:39:00.164Z,42.61
2023-09-28T14:41:29.642Z,42.43
2023-09-28T14:44:00.034Z,42.62
2023-09-28T14:46:29.261Z,42.92
2023-09-28T14:48:58.235Z,42.55
2023-09-28T14:51:27.509Z,42.60
2023-09-28T14:53:57.271Z,42.68
2023-09-28T14:56:27.368Z,42.55
2023-09-28T14:59:06.258Z,42.84
2023-09-28T15:01:43.984Z,42.74
2023-09-28T15:04:16.547Z,43.00
2023-09-28T15:06:53.136Z,43.08
2023-09-28T15:09:22.131Z,43.06
2023-09-28T15:12:06.099Z,43.52
2023-09-28T15:14:38.628Z,43.80
2023-09-28T15:17:08.384Z,43.74
2023-09-28T15:19:38.039Z,43.71
2023-09-28T15:22:07.545Z,43.57
2023-09-28T15:24:36.614Z,43.95
2023-09-28T15:27:05.592Z,44.18
2023-09-28T15:29:35.935Z,44.04
2023-09-28T15:32:09.271Z,44.29
2023-09-28T15:34:37.544Z,44.46
2023-09-28T15:37:06.664Z,44.24
2023-09-28T15:39:37.911Z,44.17
2023-09-28T15:42:07.133Z,44.62
2023-09-28T15:44:36.944Z,44.71
2023-09-28T15:47:06.123Z,44.80
2023-09-28T15:49:38.505Z,45.18
2023-09-28T15:52:09.059Z,44.86
2023-09-28T15:54:38.733Z,45.00
2023-09-28T15:57:07.755Z,45.72
2023-09-28T15:59:38.039Z,45.78
2023-09-28T16:02:08.065Z,46.25
2023-09-28T16:04:37.252Z,45.79
2023-09-28T16:07:07.499Z,46.41
2023-09-28T16:09:36.784Z,46.58
2023-09-28T16:12:06.647Z,46.53
2023-09-28T16:14:36.001Z,46.71
2023-09-28T16:17:05.639Z,47.18
2023-09-28T16:19:35.758Z,47.76
2023-09-28T16:22:04.893Z,47.47
2023-09-28T16:24:36.678Z,48.28
2023-09-28T16:27:05.642Z,48.08
2023-09-28T16:29:35.004Z,48.69
2023-09-28T16:32:03.958Z,49.22
2023-09-28T16:34:34.274Z,49.28
2023-09-28T16:37:03.294Z,49.53
2023-09-28T16:39:32.331Z,49.49
2023-09-28T16:42:02.647Z,50.01
2023-09-28T16:44:31.942Z,50.35
2023-09-28T16:47:02.391Z,50.22
2023-09-28T16:49:31.305Z,50.59
2023-09-28T16:52:00.184Z,50.86
2023-09-28T16:54:29.157Z,51.47
2023-09-28T16:56:58.242Z,51.23
2023-09-28T16:59:28.358Z,51.72
2023-09-28T17:02:00.522Z,51.95
2023-09-28T17:04:30.314Z,52.15
2023-09-28T17:07:00.483Z,52.34
2023-09-28T17:09:29.413Z,52.51
2023-09-28T17:11:58.919Z,52.92
2023-09-28T17:14:27.903Z,53.09
2023-09-28T17:16:58.753Z,52.97
2023-09-28T17:19:27.751Z,53.27
2023-09-28T17:21:57.077Z,53.41
2023-09-28T17:24:26.320Z,53.57
2023-09-28T17:26:56.710Z,53.69
2023-09-28T17:29:25.959Z,53.53
2023-09-28T17:31:57.764Z,54.23
2023-09-28T17:34:27.293Z,54.37
2023-09-28T17:36:57.538Z,54.12
2023-09-28T17:39:31.134Z,54.42
2023-09-28T17:42:00.350Z,54.78
2023-09-28T17:44:30.586Z,54.76
2023-09-28T17:47:00.934Z,54.64
2023-09-28T17:49:30.203Z,55.43
2023-09-28T17:51:59.205Z,55.34
2023-09-28T17:54:28.707Z,55.65
2023-09-28T17:56:57.762Z,55.37
2023-09-28T17:59:26.794Z,55.98
2023-09-28T18:02:09.117Z,56.09
2023-09-28T18:04:46.659Z,56.00
2023-09-28T18:07:17.941Z,56.40
2023-09-28T18:09:50.650Z,56.59
2023-09-28T18:12:21.229Z,56.23
2023-09-28T18:14:56.273Z,56.74
2023-09-28T18:24:00.335Z,56.80
2023-09-28T18:26:30.136Z,57.26
2023-09-28T18:31:57.816Z,57.04
2023-09-28T18:34:27.964Z,57.51
2023-09-28T18:37:15.376Z,57.24
2023-09-28T18:39:47.855Z,57.89
2023-09-28T18:42:20.434Z,57.96
2023-09-28T18:44:49.852Z,58.29
2023-09-28T18:47:20.701Z,57.87
2023-09-28T18:49:50.107Z,58.44
2023-09-28T18:52:31.538Z,58.17
2023-09-28T18:55:03.730Z,58.52
2023-09-28T18:57:37.777Z,58.57
2023-09-28T19:00:15.901Z,58.84
2023-09-28T19:02:50.214Z,59.01
2023-09-28T19:05:19.528Z,59.07
2023-09-28T19:07:49.435Z,59.26
2023-09-28T19:10:18.743Z,59.09
2023-09-28T19:12:47.725Z,59.39
2023-09-28T19:15:17.032Z,58.99
2023-09-28T19:17:45.995Z,59.26
2023-09-28T19:20:26.067Z,59.68
2023-09-28T19:22:55.900Z,59.44
2023-09-28T19:25:26.586Z,59.93
2023-09-28T19:27:55.541Z,60.24
2023-09-28T19:30:28.631Z,59.91
2023-09-28T19:32:57.684Z,60.46
2023-09-28T19:35:29.387Z,60.06
2023-09-28T19:37:58.375Z,60.89
2023-09-28T19:40:27.879Z,60.51
2023-09-28T19:43:01.274Z,60.93
2023-09-28T19:45:30.583Z,60.79
2023-09-28T19:48:01.842Z,60.48
2023-09-28T19:50:31.219Z,61.19
2023-09-28T19:53:04.278Z,61.09
2023-09-28T19:55:36.960Z,61.24
2023-09-28T19:58:06.706Z,60.95
2023-09-28T20:00:39.304Z,61.33
2023-09-28T20:03:08.767Z,61.58
2023-09-28T20:05:41.399Z,61.46
2023-09-28T20:08:10.377Z,61.48
2023-09-28T20:10:41.858Z,61.79
2023-09-28T20:13:17.063Z,61.78
2023-09-28T20:15:46.287Z,62.05
2023-09-28T20:18:15.330Z,61.66
2023-09-28T20:20:44.360Z,61.90
2023-09-28T20:23:16.773Z,62.31
2023-09-28T20:25:46.651Z,62.30
2023-09-28T20:28:15.760Z,62.28
2023-09-28T20:30:44.700Z,62.17
2023-09-28T20:33:14.141Z,62.63
2023-09-28T20:35:47.178Z,62.17
2023-09-28T20:38:29.145Z,62.41
2023-09-28T20:40:58.057Z,62.55
2023-09-28T20:43:31.993Z,62.62
2023-09-28T20:46:04.840Z,63.29
2023-09-28T20:48:38.075Z,62.70
2023-09-28T20:51:11.066Z,63.12
2023-09-28T20:53:43.366Z,63.51
2023-09-28T20:56:16.441Z,63.43
2023-09-28T20:58:46.502Z,63.39
2023-09-28T21:01:15.994Z,63.47
2023-09-28T21:03:45.181Z,63.67
2023-09-28T21:06:14.249Z,63.37
2023-09-28T21:08:43.333Z,63.37
2023-09-28T21:11:18.885Z,64.17
2023-09-28T21:13:48.039Z,63.74
2023-09-28T21:16:17.871Z,64.01
2023-09-28T21:18:47.284Z,64.27
2023-09-28T21:21:18.987Z,64.40
2023-09-28T21:23:49.852Z,63.72
2023-09-28T21:26:19.726Z,63.99
2023-09-28T21:28:49.039Z,64.24
2023-09-28T21:31:17.899Z,64.53
2023-09-28T21:33:47.088Z,64.12
2023-09-28T21:36:17.073Z,64.02
2023-09-28T21:38:48.097Z,64.33
2023-09-28T21:41:17.124Z,64.48
2023-09-28T21:43:46.036Z,64.96
2023-09-28T21:46:22.158Z,64.56
2023-09-28T21:48:51.280Z,64.64
2023-09-28T21:51:20.945Z,64.82
2023-09-28T21:53:50.387Z,65.14
2023-09-28T21:56:20.502Z,64.73
2023-09-28T21:58:53.545Z,64.40
2023-09-28T22:01:22.601Z,64.61
2023-09-28T22:03:54.580Z,65.49
2023-09-28T22:06:23.466Z,65.23
2023-09-28T22:08:52.333Z,64.96
2023-09-28T22:11:22.738Z,65.53
2023-09-28T22:13:51.585Z,65.52
2023-09-28T22:16:27.499Z,65.54
2023-09-28T22:18:57.157Z,66.08
2023-09-28T22:21:26.436Z,66.01
2023-09-28T22:23:56.287Z,66.14
2023-09-28T22:26:25.409Z,66.31
2023-09-28T22:28:54.950Z,66.66
2023-09-28T22:31:38.802Z,66.34
2023-09-28T22:34:10.900Z,65.71
2023-09-28T22:36:40.528Z,66.82
2023-09-28T22:39:11.010Z,66.37
2023-09-28T22:41:40.091Z,66.28
2023-09-28T22:44:08.946Z,66.23
2023-09-28T22:46:37.879Z,66.66
2023-09-28T22:49:07.337Z,66.63
2023-09-28T22:51:36.473Z,66.72
2023-09-28T22:54:06.320Z,67.22
2023-09-28T22:56:35.879Z,67.33
2023-09-28T22:59:05.149Z,66.81
2023-09-28T23:01:35.674Z,67.12
2023-09-28T23:04:06.239Z,67.12
2023-09-28T23:06:37.645Z,67.85
2023-09-28T23:09:07.840Z,66.98
2023-09-28T23:11:37.444Z,66.92
2023-09-28T23:14:09.586Z,66.81
2023-09-28T23:16:39.005Z,67.90
2023-09-28T23:19:08.415Z,67.57
2023-09-28T23:21:37.430Z,67.12
2023-09-28T23:24:14.201Z,67.04
2023-09-28T23:26:43.158Z,67.95
2023-09-28T23:29:15.330Z,68.15
2023-09-28T23:31:44.797Z,68.00
2023-09-28T23:34:14.576Z,68.25
2023-09-28T23:36:47.041Z,68.07
2023-09-28T23:39:16.899Z,68.19
2023-09-28T23:41:49.291Z,68.31
2023-09-28T23:44:18.591Z,67.68
2023-09-28T23:46:49.492Z,67.73
2023-09-28T23:49:19.562Z,68.41
2023-09-28T23:51:50.878Z,68.83
2023-09-28T23:54:20.837Z,68.46
2023-09-28T23:56:49.959Z,68.72
2023-09-28T23:59:20.585Z,68.11
